Time;durP1;ratioP1;P1;durP2;ratioP2;P2;SDS_P1;SDS_P2;PMS_P1;PMS_P2;Temp;Humidity;BMP_temperature;BMP_pressure;BME280_temperature;BME280_humidity;BME280_pressure;Samples;Min_cycle;Max_cycle;Signal;HPM_P1;HPM_P2
2023/06/22 00:00:56;;;;;;;1999.90;999.90;;;20.50;99.90;;;;;;5032981;28;20396;-74
2023/06/22 00:03:26;;;;;;;1999.90;999.90;;;20.50;99.90;;;;;;5032189;28;20029;-75
2023/06/22 00:05:52;;;;;;;1999.90;999.90;;;20.50;99.90;;;;;;5032672;28;20025;-75
2023/06/22 00:08:18;;;;;;;1999.90;999.90;;;20.40;99.90;;;;;;5032360;28;20056;-74
2023/06/22 00:10:45;;;;;;;1999.90;999.90;;;20.40;99.90;;;;;;5032660;28;20021;-75
2023/06/22 00:13:12;;;;;;;1999.90;999.90;;;20.40;99.90;;;;;;5033667;28;20045;-77
2023/06/22 00:15:39;;;;;;;1999.90;999.90;;;20.30;99.90;;;;;;5036187;28;20046;-74
2023/06/22 00:18:06;;;;;;;1999.90;999.90;;;20.20;99.90;;;;;;5036374;28;20028;-75
2023/06/22 00:20:32;;;;;;;1999.90;999.90;;;20.10;99.90;;;;;;5036223;28;20032;-74
2023/06/22 00:22:59;;;;;;;1999.90;999.90;;;20.00;99.90;;;;;;5036257;28;20025;-77
2023/06/22 00:25:25;;;;;;;1999.90;999.90;;;20.00;99.90;;;;;;5034997;28;20022;-77
2023/06/22 00:27:51;;;;;;;1999.90;999.90;;;19.90;99.90;;;;;;5036313;28;20108;-75
2023/06/22 00:30:18;;;;;;;1999.90;999.90;;;19.90;99.90;;;;;;5036194;28;20472;-75
2023/06/22 00:32:44;;;;;;;1999.90;999.90;;;19.80;99.90;;;;;;5035888;28;20026;-75
2023/06/22 00:35:11;;;;;;;1999.90;999.90;;;19.80;99.90;;;;;;5036014;28;20026;-75
2023/06/22 00:37:38;;;;;;;1999.90;999.90;;;19.70;99.90;;;;;;5036204;28;20026;-77
2023/06/22 00:40:05;;;;;;;1999.90;999.90;;;19.70;99.90;;;;;;5036088;28;20071;-75
2023/06/22 00:42:30;;;;;;;1999.90;999.90;;;19.70;99.90;;;;;;5036038;28;20163;-75
2023/06/22 00:44:56;;;;;;;1999.90;999.90;;;19.70;99.90;;;;;;5035782;28;20076;-75
2023/06/22 00:47:22;;;;;;;1999.90;999.90;;;19.70;99.90;;;;;;5035656;28;20083;-75
2023/06/22 00:49:52;;;;;;;1999.90;999.90;;;19.70;99.90;;;;;;5035087;28;20025;-75
2023/06/22 00:52:21;;;;;;;1999.90;999.90;;;19.70;99.90;;;;;;5035891;28;20388;-77
2023/06/22 00:54:51;;;;;;;1999.90;999.90;;;19.70;99.90;;;;;;5035497;28;20499;-75
2023/06/22 00:57:18;;;;;;;1999.90;999.90;;;19.70;99.90;;;;;;5035990;28;20365;-75
2023/06/22 00:59:45;;;;;;;1999.90;999.90;;;19.70;99.90;;;;;;5035559;28;20468;-74
2023/06/22 01:02:11;;;;;;;1999.90;999.90;;;19.70;99.90;;;;;;5035246;28;20025;-77
2023/06/22 01:04:38;;;;;;;1999.90;999.90;;;19.70;99.90;;;;;;5035277;28;20041;-77
2023/06/22 01:07:22;;;;;;;1999.90;999.90;;;19.70;99.90;;;;;;5035172;28;20112;-74
2023/06/22 01:10:14;;;;;;;1999.90;999.90;;;19.60;99.90;;;;;;5035271;28;20436;-75
2023/06/22 01:12:45;;;;;;;1999.90;999.90;;;19.60;99.90;;;;;;5035148;28;20033;-74
2023/06/22 01:15:19;;;;;;;1999.90;999.90;;;19.50;99.90;;;;;;5034980;28;20026;-76
2023/06/22 01:17:45;;;;;;;1999.90;999.90;;;19.50;99.90;;;;;;5033857;28;20017;-76
2023/06/22 01:20:14;;;;;;;1999.90;999.90;;;19.50;99.90;;;;;;5035187;28;20026;-75
2023/06/22 01:23:05;;;;;;;1999.90;999.90;;;19.50;99.90;;;;;;5035300;28;20025;-75
2023/06/22 01:25:53;;;;;;;1999.90;999.90;;;19.50;99.90;;;;;;5034541;28;20033;-75
2023/06/22 01:28:42;;;;;;;1999.90;999.90;;;19.50;99.90;;;;;;5033593;28;20083;-76
2023/06/22 01:31:10;;;;;;;1999.90;999.90;;;19.50;99.90;;;;;;5034865;28;20056;-77
2023/06/22 01:33:40;;;;;;;1999.90;999.90;;;19.50;99.90;;;;;;5035226;28;20028;-75
2023/06/22 01:36:07;;;;;;;1999.90;999.90;;;19.50;99.90;;;;;;5035343;28;20026;-75
2023/06/22 01:38:33;;;;;;;1999.90;999.90;;;19.50;99.90;;;;;;5034594;28;20459;-75
2023/06/22 01:41:00;;;;;;;1999.90;999.90;;;19.50;99.90;;;;;;5034864;28;20053;-77
2023/06/22 01:43:27;;;;;;;1999.90;999.90;;;19.50;99.90;;;;;;5034831;28;20476;-77
2023/06/22 01:45:54;;;;;;;1999.90;999.90;;;19.50;99.90;;;;;;5033411;28;20467;-74
2023/06/22 01:48:21;;;;;;;1999.90;999.90;;;19.50;99.90;;;;;;5034806;28;20017;-75
2023/06/22 01:50:47;;;;;;;1999.90;999.90;;;19.60;99.90;;;;;;5033329;28;20489;-75
2023/06/22 01:53:13;;;;;;;1999.90;999.90;;;19.50;99.90;;;;;;5034749;28;20053;-75
2023/06/22 01:55:39;;;;;;;1999.90;999.90;;;19.50;99.90;;;;;;5034629;28;20464;-77
2023/06/22 01:58:04;;;;;;;1999.90;999.90;;;19.50;99.90;;;;;;5034262;28;20468;-75
2023/06/22 02:00:36;;;;;;;1999.90;999.90;;;19.60;99.90;;;;;;5033132;28;20032;-75
2023/06/22 02:03:10;;;;;;;1999.90;999.90;;;19.50;99.90;;;;;;5033072;28;20431;-75
2023/06/22 02:05:54;;;;;;;1999.90;999.90;;;19.60;99.90;;;;;;5034525;28;20480;-75
2023/06/22 02:08:23;;;;;;;1999.90;999.90;;;19.60;99.90;;;;;;5034277;28;20471;-77
2023/06/22 02:10:50;;;;;;;1999.90;999.90;;;19.60;99.90;;;;;;5034490;28;20047;-75
2023/06/22 02:13:16;;;;;;;1999.90;999.90;;;19.60;99.90;;;;;;5034002;28;20037;-74
2023/06/22 02:15:42;;;;;;;1999.90;999.90;;;19.60;99.90;;;;;;5033716;28;20463;-75
2023/06/22 02:18:08;;;;;;;1999.90;999.90;;;19.60;99.90;;;;;;5034050;28;20032;-75
2023/06/22 02:20:37;;;;;;;1999.90;999.90;;;19.60;99.90;;;;;;5034042;28;20116;-77
2023/06/22 02:23:02;;;;;;;1999.90;999.90;;;19.60;99.90;;;;;;5033934;28;20014;-77
2023/06/22 02:25:28;;;;;;;1999.90;999.90;;;19.70;99.90;;;;;;5033955;28;20033;-74
2023/06/22 02:27:54;;;;;;;1999.90;999.90;;;19.60;99.90;;;;;;5034112;28;20030;-74
2023/06/22 02:30:19;;;;;;;1999.90;999.90;;;19.60;99.90;;;;;;5033826;28;20052;-75
2023/06/22 02:32:45;;;;;;;1999.90;999.90;;;19.60;99.90;;;;;;5033677;28;20025;-77
2023/06/22 02:35:11;;;;;;;1999.90;999.90;;;19.70;99.90;;;;;;5032983;28;20029;-77
2023/06/22 02:37:41;;;;;;;1999.90;999.90;;;19.70;99.90;;;;;;5033425;28;20029;-74
2023/06/22 02:40:11;;;;;;;1999.90;999.90;;;19.70;99.90;;;;;;5033721;28;20022;-74
2023/06/22 02:42:40;;;;;;;1999.90;999.90;;;19.70;99.90;;;;;;5033482;28;20022;-74
2023/06/22 02:45:06;;;;;;;1999.90;999.90;;;19.70;99.90;;;;;;5033293;28;20029;-75
2023/06/22 02:47:31;;;;;;;1999.90;999.90;;;19.60;99.90;;;;;;5033489;28;20057;-76
2023/06/22 02:49:57;;;;;;;1999.90;999.90;;;19.50;99.90;;;;;;5033611;28;20053;-74
2023/06/22 02:52:23;;;;;;;1999.90;999.90;;;19.40;99.90;;;;;;5032494;28;20021;-74
2023/06/22 02:54:48;;;;;;;1999.90;999.90;;;19.20;99.90;;;;;;5033426;28;20035;-74
2023/06/22 02:57:14;;;;;;;1999.90;999.90;;;19.00;99.90;;;;;;5033380;28;20097;-78
2023/06/22 02:59:41;;;;;;;1999.90;999.90;;;19.00;99.90;;;;;;5033101;28;20431;-77
2023/06/22 03:02:08;;;;;;;1999.90;999.90;;;18.90;99.90;;;;;;5033016;28;20044;-77
2023/06/22 03:04:35;;;;;;;1999.90;999.90;;;18.90;99.90;;;;;;5033102;28;20029;-73
2023/06/22 03:07:01;;;;;;;1999.90;999.90;;;19.00;99.90;;;;;;5033115;28;20029;-73
2023/06/22 03:09:28;;;;;;;1999.90;999.90;;;19.00;99.90;;;;;;5033319;28;20098;-73
2023/06/22 03:11:57;;;;;;;1999.90;999.90;;;19.10;99.90;;;;;;5032957;28;20029;-76
2023/06/22 03:14:22;;;;;;;1999.90;999.90;;;19.10;99.90;;;;;;5032646;28;20416;-76
2023/06/22 03:16:48;;;;;;;1999.90;999.90;;;19.20;99.90;;;;;;5032969;28;20018;-74
2023/06/22 03:19:14;;;;;;;1999.90;999.90;;;19.20;99.90;;;;;;5033321;28;20037;-74
2023/06/22 03:21:40;;;;;;;1999.90;999.90;;;19.20;99.90;;;;;;5031722;28;20539;-74
2023/06/22 03:24:06;;;;;;;1999.90;999.90;;;19.30;99.90;;;;;;5032848;28;20026;-74
2023/06/22 03:26:32;;;;;;;1999.90;999.90;;;19.40;99.90;;;;;;5032896;28;20021;-76
2023/06/22 03:28:58;;;;;;;1999.90;999.90;;;19.40;99.90;;;;;;5032899;28;20473;-74
2023/06/22 03:31:24;;;;;;;1999.90;999.90;;;19.40;99.90;;;;;;5032814;28;20029;-74
2023/06/22 03:33:50;;;;;;;1999.90;999.90;;;19.40;99.90;;;;;;5031780;28;20035;-74
2023/06/22 03:36:19;;;;;;;1999.90;999.90;;;19.40;99.90;;;;;;5032628;28;20492;-74
2023/06/22 03:38:46;;;;;;;1999.90;999.90;;;19.40;99.90;;;;;;5032921;28;20026;-76
2023/06/22 03:41:12;;;;;;;1999.90;999.90;;;19.40;99.90;;;;;;5032824;28;20021;-77
2023/06/22 03:43:38;;;;;;;1999.90;999.90;;;19.40;99.90;;;;;;5032973;28;20447;-74
2023/06/22 03:46:04;;;;;;;1999.90;999.90;;;19.40;99.90;;;;;;5032819;28;20025;-74
2023/06/22 03:48:29;;;;;;;1999.90;999.90;;;19.40;99.90;;;;;;5034732;28;20116;-74
2023/06/22 03:50:55;;;;;;;1999.90;999.90;;;19.40;99.90;;;;;;5035409;28;20051;-77
2023/06/22 03:53:20;;;;;;;1999.90;999.90;;;19.50;99.90;;;;;;5035950;28;20231;-77
2023/06/22 03:55:51;;;;;;;1999.90;999.90;;;19.50;99.90;;;;;;5035399;28;20021;-74
2023/06/22 03:58:18;;;;;;;1999.90;999.90;;;19.40;99.90;;;;;;5036888;28;20097;-74
2023/06/22 04:00:46;;;;;;;1999.90;999.90;;;19.50;99.90;;;;;;5036324;28;20128;-74
2023/06/22 04:03:11;;;;;;;1999.90;999.90;;;19.40;99.90;;;;;;5036536;28;20084;-74
2023/06/22 04:05:38;;;;;;;1999.90;999.90;;;19.40;99.90;;;;;;5036244;28;20025;-75
2023/06/22 04:08:05;;;;;;;1999.90;999.90;;;19.40;99.90;;;;;;5036688;28;20124;-75
2023/06/22 04:10:30;;;;;;;1999.90;999.90;;;19.40;99.90;;;;;;5034874;28;20036;-74
2023/06/22 04:12:56;;;;;;;1999.90;999.90;;;19.40;99.90;;;;;;5036001;28;20500;-74
2023/06/22 04:15:22;;;;;;;1999.90;999.90;;;19.30;99.90;;;;;;5036384;28;20033;-74
2023/06/22 04:17:47;;;;;;;1999.90;999.90;;;19.30;99.90;;;;;;5036436;28;20049;-76
2023/06/22 04:20:13;;;;;;;1999.90;999.90;;;19.30;99.90;;;;;;5036334;28;20025;-76
2023/06/22 04:22:39;;;;;;;1999.90;999.90;;;19.20;99.90;;;;;;5035671;28;20025;-74
2023/06/22 04:25:07;;;;;;;1999.90;999.90;;;19.30;99.90;;;;;;5036271;28;20029;-75
2023/06/22 04:27:37;;;;;;;1999.90;999.90;;;19.30;99.90;;;;;;5036506;28;20022;-75
2023/06/22 04:30:03;;;;;;;1999.90;999.90;;;19.30;99.90;;;;;;5036088;28;20024;-76
2023/06/22 04:32:29;;;;;;;1999.90;999.90;;;19.20;99.90;;;;;;5035802;28;20037;-76
2023/06/22 04:34:55;;;;;;;1999.90;999.90;;;19.20;99.90;;;;;;5035859;28;20029;-74
2023/06/22 04:37:23;;;;;;;1999.90;999.90;;;19.10;99.90;;;;;;5036016;28;20031;-74
2023/06/22 04:39:49;;;;;;;1999.90;999.90;;;19.10;99.90;;;;;;5036076;28;20022;-75
2023/06/22 04:42:15;;;;;;;1999.90;999.90;;;19.10;99.90;;;;;;5033460;28;20060;-74
2023/06/22 04:44:42;;;;;;;1999.90;999.90;;;19.10;99.90;;;;;;5032132;28;20029;-76
2023/06/22 04:47:08;;;;;;;1999.90;999.90;;;19.00;99.90;;;;;;5035424;28;20022;-74
2023/06/22 04:49:37;;;;;;;1999.90;999.90;;;19.00;99.90;;;;;;5035138;28;20435;-74
2023/06/22 04:52:07;;;;;;;1999.90;999.90;;;19.00;99.90;;;;;;5035677;28;20092;-75
2023/06/22 04:54:34;;;;;;;1999.90;999.90;;;19.00;99.90;;;;;;5033517;28;20033;-75
2023/06/22 04:57:04;;;;;;;1999.90;999.90;;;18.90;99.90;;;;;;5035506;28;20172;-76
2023/06/22 04:59:31;;;;;;;1999.90;999.90;;;18.90;99.90;;;;;;5034484;28;20033;-73
2023/06/22 05:01:58;;;;;;;1999.90;999.90;;;18.80;99.90;;;;;;5035068;28;20484;-74
2023/06/22 05:04:25;;;;;;;1999.90;999.90;;;18.70;99.90;;;;;;5035613;28;20465;-73
2023/06/22 05:06:51;;;;;;;1999.90;999.90;;;18.70;99.90;;;;;;5035105;28;20060;-74
2023/06/22 05:09:17;;;;;;;1999.90;999.90;;;18.70;99.90;;;;;;5035359;28;20034;-76
2023/06/22 05:11:44;;;;;;;1999.90;999.90;;;18.70;99.90;;;;;;5035199;28;20128;-76
2023/06/22 05:14:09;;;;;;;1999.90;999.90;;;18.70;99.90;;;;;;5034775;28;20045;-74
2023/06/22 05:16:36;;;;;;;1999.90;999.90;;;18.70;99.90;;;;;;5035117;28;20396;-74
2023/06/22 05:19:03;;;;;;;1999.90;999.90;;;18.70;99.90;;;;;;5035071;28;20030;-74
2023/06/22 05:21:30;;;;;;;1999.90;999.90;;;18.80;99.90;;;;;;5034730;28;20028;-76
2023/06/22 05:23:59;;;;;;;1999.90;999.90;;;18.80;99.90;;;;;;5034889;28;20036;-74
2023/06/22 05:26:26;;;;;;;1999.90;999.90;;;18.80;99.90;;;;;;5034579;28;20017;-74
2023/06/22 05:28:52;;;;;;;1999.90;999.90;;;18.80;99.90;;;;;;5034615;28;20400;-74
2023/06/22 05:31:19;;;;;;;1999.90;999.90;;;18.80;99.90;;;;;;5041663;28;20029;-74
2023/06/22 05:33:46;;;;;;;1999.90;999.90;;;18.90;99.90;;;;;;5054667;28;20032;-74
2023/06/22 05:36:13;;;;;;;1999.90;999.90;;;18.80;99.90;;;;;;5046998;28;20397;-76
2023/06/22 05:38:39;;;;;;;1999.90;999.90;;;18.80;99.90;;;;;;5034506;28;20028;-75
2023/06/22 05:41:05;;;;;;;1999.90;999.90;;;18.80;99.90;;;;;;5034244;28;20033;-74
2023/06/22 05:43:31;;;;;;;1999.90;999.90;;;18.90;99.90;;;;;;5034351;28;20030;-75
2023/06/22 05:45:57;;;;;;;1999.90;999.90;;;19.00;99.90;;;;;;5033936;28;20029;-74
2023/06/22 05:48:23;;;;;;;1999.90;999.90;;;19.00;99.90;;;;;;5033813;28;20392;-75
2023/06/22 05:50:49;;;;;;;1999.90;999.90;;;19.10;99.90;;;;;;5026200;28;20032;-73
2023/06/22 05:53:15;;;;;;;1999.90;999.90;;;19.10;99.90;;;;;;5027206;28;20029;-74
2023/06/22 05:55:42;;;;;;;1999.90;999.90;;;19.10;99.90;;;;;;5033400;28;20035;-73
2023/06/22 05:58:08;;;;;;;1999.90;999.90;;;19.10;99.90;;;;;;5034068;28;20435;-74
2023/06/22 06:00:34;;;;;;;1999.90;999.90;;;19.10;99.90;;;;;;5034369;28;20021;-76
2023/06/22 06:03:03;;;;;;;1999.90;999.90;;;19.10;99.90;;;;;;5034691;28;20392;-75
2023/06/22 06:05:33;;;;;;;1999.90;999.90;;;19.10;99.90;;;;;;5029308;28;20071;-72
2023/06/22 06:08:00;;;;;;;1999.90;999.90;;;19.20;99.90;;;;;;5020154;28;20805;-73
2023/06/22 06:10:27;;;;;;;1999.90;999.90;;;19.20;99.90;;;;;;5032560;28;20036;-73
2023/06/22 06:12:53;;;;;;;1999.90;999.90;;;19.30;99.90;;;;;;5035230;28;20044;-72
2023/06/22 06:15:18;;;;;;;1999.90;999.90;;;19.30;99.90;;;;;;5027918;28;20442;-75
2023/06/22 06:17:52;;;;;;;1999.90;999.90;;;19.40;99.90;;;;;;5029872;28;20040;-75
2023/06/22 06:20:22;;;;;;;1999.90;999.90;;;19.40;99.90;;;;;;5029920;28;20022;-71
2023/06/22 06:22:48;;;;;;;1999.90;999.90;;;19.50;99.90;;;;;;5024605;28;20041;-72
2023/06/22 06:25:18;;;;;;;1999.90;999.90;;;19.50;99.90;;;;;;5029714;28;20029;-72
2023/06/22 06:27:45;;;;;;;1999.90;999.90;;;19.50;99.90;;;;;;5024961;28;20057;-75
2023/06/22 06:30:12;;;;;;;1999.90;999.90;;;19.50;99.90;;;;;;5034931;28;20048;-75
2023/06/22 06:32:39;;;;;;;1999.90;999.90;;;19.50;99.90;;;;;;5026785;28;20033;-76
2023/06/22 06:35:09;;;;;;;1999.90;999.90;;;19.50;99.90;;;;;;5039961;28;20022;-75
2023/06/22 06:37:40;;;;;;;1999.90;999.90;;;19.60;99.90;;;;;;5027571;28;20021;-72
2023/06/22 06:40:10;;;;;;;1999.90;999.90;;;19.60;99.90;;;;;;5045188;28;20029;-76
2023/06/22 06:42:41;;;;;;;1999.90;999.90;;;19.70;99.90;;;;;;5038508;28;20072;-75
2023/06/22 06:45:19;;;;;;;1999.90;999.90;;;19.70;99.90;;;;;;5043848;28;20033;-73
2023/06/22 06:47:45;;;;;;;1999.90;999.90;;;19.80;99.90;;;;;;5038260;28;20033;-72
2023/06/22 06:50:11;;;;;;;1999.90;999.90;;;19.80;99.90;;;;;;5028847;28;20127;-73
2023/06/22 06:52:36;;;;;;;1999.90;999.90;;;19.80;99.90;;;;;;5028862;28;20101;-74
2023/06/22 06:55:06;;;;;;;1999.90;999.90;;;19.80;99.90;;;;;;5028975;28;20119;-75
2023/06/22 06:57:32;;;;;;;1999.90;999.90;;;19.80;99.90;;;;;;5032808;28;20107;-74
2023/06/22 06:59:57;;;;;;;1999.90;999.90;;;20.00;99.90;;;;;;5027545;28;20025;-73
2023/06/22 07:02:24;;;;;;;1999.90;999.90;;;20.00;99.90;;;;;;5022661;28;20392;-72
2023/06/22 07:04:50;;;;;;;1999.90;999.90;;;20.10;99.90;;;;;;5022678;28;20393;-73
2023/06/22 07:07:16;;;;;;;1999.90;999.90;;;20.00;99.90;;;;;;5024180;28;20037;-76
2023/06/22 07:09:41;;;;;;;1999.90;999.90;;;20.00;99.90;;;;;;5026056;28;20029;-73
2023/06/22 07:12:07;;;;;;;1999.90;999.90;;;20.10;99.90;;;;;;5027117;28;20029;-73
2023/06/22 07:14:33;;;;;;;1999.90;999.90;;;20.10;99.90;;;;;;5025941;28;20036;-73
2023/06/22 07:16:59;;;;;;;1999.90;999.90;;;20.20;99.90;;;;;;5032510;28;20512;-73
2023/06/22 07:19:28;;;;;;;1999.90;999.90;;;20.20;99.90;;;;;;5029587;28;20033;-76
2023/06/22 07:21:54;;;;;;;1999.90;999.90;;;20.30;99.90;;;;;;5034326;28;20491;-73
2023/06/22 07:24:21;;;;;;;1999.90;999.90;;;20.40;99.90;;;;;;5029605;28;20040;-73
2023/06/22 07:26:49;;;;;;;1999.90;999.90;;;20.40;99.90;;;;;;5043505;28;20037;-72
2023/06/22 07:29:20;;;;;;;1999.90;999.90;;;20.50;99.90;;;;;;5029657;28;20101;-72
2023/06/22 07:31:46;;;;;;;1999.90;999.90;;;20.40;99.90;;;;;;5032614;28;20503;-72
2023/06/22 07:34:11;;;;;;;1999.90;999.90;;;20.30;99.90;;;;;;5022753;28;20031;-76
2023/06/22 07:36:37;;;;;;;1999.90;999.90;;;20.40;99.90;;;;;;5034472;28;20455;-72
2023/06/22 07:39:03;;;;;;;1999.90;999.90;;;20.50;99.90;;;;;;5028123;28;20021;-72
2023/06/22 07:41:29;;;;;;;1999.90;999.90;;;20.50;99.90;;;;;;5033026;28;20022;-72
2023/06/22 07:43:55;;;;;;;1999.90;999.90;;;20.60;99.90;;;;;;5028720;28;20017;-72
2023/06/22 07:46:21;;;;;;;1999.90;999.90;;;20.70;99.90;;;;;;5029642;28;20033;-72
2023/06/22 07:48:47;;;;;;;1999.90;999.90;;;20.70;99.90;;;;;;5025943;28;20029;-72
2023/06/22 07:51:12;;;;;;;1999.90;999.90;;;20.90;99.90;;;;;;5026209;28;20091;-72
2023/06/22 07:53:42;;;;;;;1999.90;999.90;;;20.90;99.90;;;;;;5031942;28;20052;-72
2023/06/22 07:56:10;;;;;;;1999.90;999.90;;;20.90;99.90;;;;;;5041932;28;20058;-72
2023/06/22 07:58:36;;;;;;;1999.90;999.90;;;21.00;99.90;;;;;;5038614;28;20515;-76
2023/06/22 08:01:02;;;;;;;1999.90;999.90;;;21.10;99.90;;;;;;5028142;28;20029;-72
2023/06/22 08:03:28;;;;;;;1999.90;999.90;;;21.20;99.90;;;;;;5023694;28;20101;-74
2023/06/22 08:05:53;;;;;;;1999.90;999.90;;;21.50;99.90;;;;;;5034103;28;20503;-72
2023/06/22 08:08:19;;;;;;;1999.90;999.90;;;21.70;99.90;;;;;;5029377;28;20033;-72
2023/06/22 08:10:45;;;;;;;1999.90;999.90;;;21.90;99.90;;;;;;5039248;28;20036;-73
2023/06/22 08:13:11;;;;;;;1999.90;999.90;;;22.20;99.90;;;;;;5033944;28;20164;-72
2023/06/22 08:15:36;;;;;;;1999.90;999.90;;;22.50;99.90;;;;;;5027779;28;20052;-72
2023/06/22 08:18:02;;;;;;;1999.90;999.90;;;22.80;99.90;;;;;;5031325;28;20029;-72
2023/06/22 08:20:27;;;;;;;1999.90;999.90;;;23.40;99.90;;;;;;5023486;28;20029;-73
2023/06/22 08:22:55;;;;;;;1999.90;999.90;;;23.90;99.90;;;;;;5032049;28;20507;-72
2023/06/22 08:25:21;;;;;;;1999.90;999.90;;;24.00;99.90;;;;;;5023197;28;20083;-77
2023/06/22 08:27:48;;;;;;;1999.90;999.90;;;24.30;99.90;;;;;;5035942;28;20029;-73
2023/06/22 08:30:14;;;;;;;1999.90;999.90;;;24.60;99.90;;;;;;5030181;28;20040;-72
2023/06/22 08:32:40;;;;;;;1999.90;999.90;;;24.60;99.90;;;;;;5037472;28;20036;-73
2023/06/22 08:35:09;;;;;;;1999.90;999.90;;;24.20;99.90;;;;;;5037865;28;20037;-72
2023/06/22 08:37:35;;;;;;;1999.90;999.90;;;24.80;99.90;;;;;;5034860;28;20013;-73
2023/06/22 08:40:06;;;;;;;1999.90;999.90;;;25.80;99.90;;;;;;5037274;28;20071;-77
2023/06/22 08:42:32;;;;;;;1999.90;999.90;;;26.20;99.90;;;;;;5041294;28;20025;-73
2023/06/22 08:44:58;;;;;;;1999.90;999.90;;;26.60;99.90;;;;;;5043270;28;20039;-73
2023/06/22 08:47:24;;;;;;;1999.90;999.90;;;27.00;99.90;;;;;;5035664;28;20091;-78
2023/06/22 08:49:49;;;;;;;1999.90;999.90;;;27.50;99.90;;;;;;5031738;28;20032;-76
2023/06/22 08:52:18;;;;;;;1999.90;999.90;;;28.80;99.90;;;;;;5030834;28;20522;-76
2023/06/22 08:54:43;;;;;;;1999.90;999.90;;;30.00;99.90;;;;;;5030456;28;20053;-74
2023/06/22 08:57:09;;;;;;;1999.90;999.90;;;31.10;99.90;;;;;;5015992;28;20141;-75
2023/06/22 08:59:35;;;;;;;1999.90;999.90;;;31.80;99.90;;;;;;5027810;28;20036;-74
2023/06/22 09:02:01;;;;;;;1999.90;999.90;;;31.60;99.90;;;;;;5029621;28;20029;-75
2023/06/22 09:04:26;;;;;;;1999.90;999.90;;;31.90;99.90;;;;;;5030300;28;20032;-74
2023/06/22 09:06:52;;;;;;;1999.90;999.90;;;32.00;99.90;;;;;;5029285;28;20396;-74
2023/06/22 09:09:18;;;;;;;1999.90;999.90;;;32.10;99.90;;;;;;5027841;28;20061;-74
2023/06/22 09:11:44;;;;;;;1999.90;999.90;;;32.60;99.90;;;;;;5029965;28;20029;-74
2023/06/22 09:14:10;;;;;;;1999.90;999.90;;;32.80;99.90;;;;;;5024395;28;20100;-75
2023/06/22 09:16:36;;;;;;;1999.90;999.90;;;33.20;99.90;;;;;;5021505;28;20586;-76
2023/06/22 09:19:02;;;;;;;1999.90;999.90;;;33.70;99.90;;;;;;5023763;28;20064;-76
2023/06/22 09:21:28;;;;;;;1999.90;999.90;;;31.50;99.90;;;;;;5027880;28;20064;-74
2023/06/22 09:23:53;;;;;;;1999.90;999.90;;;30.90;99.90;;;;;;5037262;28;20033;-75
2023/06/22 09:26:20;;;;;;;1999.90;999.90;;;31.80;99.90;;;;;;5030784;28;20507;-75
2023/06/22 09:28:45;;;;;;;1999.90;999.90;;;31.80;99.90;;;;;;5034107;28;20041;-75
2023/06/22 09:31:11;;;;;;;1999.90;999.90;;;31.80;99.90;;;;;;5032095;28;20044;-74
2023/06/22 09:33:40;;;;;;;1999.90;999.90;;;31.40;99.90;;;;;;5036948;28;20037;-74
2023/06/22 09:36:07;;;;;;;1999.90;999.90;;;30.80;99.90;;;;;;5029106;28;20087;-74
2023/06/22 09:38:37;;;;;;;1999.90;999.90;;;30.50;99.90;;;;;;5023548;28;20032;-74
2023/06/22 09:41:02;;;;;;;1999.90;999.90;;;30.20;99.90;;;;;;5023846;28;20124;-74
2023/06/22 09:43:29;;;;;;;1999.90;999.90;;;29.60;99.90;;;;;;5010924;28;20038;-74
2023/06/22 09:45:55;;;;;;;1999.90;999.90;;;28.60;99.90;;;;;;5020926;28;20515;-74
2023/06/22 09:48:20;;;;;;;1999.90;999.90;;;29.30;99.90;;;;;;5033375;28;20030;-76
2023/06/22 09:50:46;;;;;;;1999.90;999.90;;;30.00;99.90;;;;;;5030846;28;20056;-74
2023/06/22 09:53:12;;;;;;;1999.90;999.90;;;28.80;99.90;;;;;;5038002;28;20163;-74
2023/06/22 09:55:37;;;;;;;1999.90;999.90;;;29.80;99.90;;;;;;5034302;28;20037;-75
2023/06/22 09:58:03;;;;;;;1999.90;999.90;;;30.90;99.90;;;;;;5035633;28;20029;-74
2023/06/22 10:00:28;;;;;;;1999.90;999.90;;;31.50;99.90;;;;;;5027687;28;20100;-74
2023/06/22 10:02:55;;;;;;;1999.90;999.90;;;31.40;99.90;;;;;;5033685;28;20506;-75
2023/06/22 10:05:21;;;;;;;1999.90;999.90;;;32.10;99.90;;;;;;5029077;28;20400;-75
2023/06/22 10:07:47;;;;;;;1999.90;999.90;;;32.40;99.90;;;;;;5032024;28;20033;-74
2023/06/22 10:10:13;;;;;;;1999.90;999.90;;;32.20;99.90;;;;;;5027776;28;20368;-74
2023/06/22 10:12:48;;;;;;;1999.90;999.90;;;32.50;99.90;;;;;;5025970;28;20037;-74
2023/06/22 10:15:14;;;;;;;1999.90;999.90;;;33.20;99.90;;;;;;5024049;28;20041;-74
2023/06/22 10:17:40;;;;;;;1999.90;999.90;;;33.50;99.90;;;;;;5033975;28;20022;-74
2023/06/22 10:20:11;;;;;;;1999.90;999.90;;;33.50;99.90;;;;;;5029201;28;20037;-74
2023/06/22 10:22:42;;;;;;;1999.90;999.90;;;32.90;99.90;;;;;;5022116;28;20063;-75
2023/06/22 10:25:08;;;;;;;1999.90;999.90;;;32.80;99.90;;;;;;5022846;28;20837;-74
2023/06/22 10:27:34;;;;;;;1999.90;999.90;;;32.10;99.90;;;;;;5028439;28;20029;-74
2023/06/22 10:30:00;;;;;;;1999.90;999.90;;;32.00;99.90;;;;;;5030005;28;20515;-74
2023/06/22 10:32:27;;;;;;;1999.90;999.90;;;32.30;99.90;;;;;;5030539;28;20029;-74
2023/06/22 10:34:53;;;;;;;1999.90;999.90;;;32.30;99.90;;;;;;5026209;28;20105;-74
2023/06/22 10:37:19;;;;;;;1999.90;999.90;;;31.10;99.90;;;;;;5028064;28;20492;-74
2023/06/22 10:39:44;;;;;;;1999.90;999.90;;;31.40;99.90;;;;;;5024864;28;20101;-74
2023/06/22 10:42:10;;;;;;;1999.90;999.90;;;31.80;99.90;;;;;;5020094;28;20025;-74
2023/06/22 10:44:35;;;;;;;1999.90;999.90;;;32.40;99.90;;;;;;5021983;28;20045;-76
2023/06/22 10:47:01;;;;;;;1999.90;999.90;;;32.00;99.90;;;;;;5027170;28;20100;-77
2023/06/22 10:49:26;;;;;;;1999.90;999.90;;;32.00;99.90;;;;;;5031132;28;20040;-76
2023/06/22 10:51:52;;;;;;;1999.90;999.90;;;30.20;99.90;;;;;;5024763;28;20446;-76
2023/06/22 10:54:19;;;;;;;1999.90;999.90;;;30.60;99.90;;;;;;5029964;28;20033;-74
2023/06/22 10:56:45;;;;;;;1999.90;999.90;;;30.80;99.90;;;;;;5028673;28;20396;-74
2023/06/22 10:59:10;;;;;;;1999.90;999.90;;;31.30;99.90;;;;;;5029128;28;20021;-74
2023/06/22 11:01:36;;;;;;;1999.90;999.90;;;31.10;99.90;;;;;;5026478;28;20032;-76
2023/06/22 11:04:02;;;;;;;1999.90;999.90;;;31.50;99.90;;;;;;5029906;28;20404;-76
2023/06/22 11:06:28;;;;;;;1999.90;999.90;;;31.40;99.90;;;;;;5028468;28;20033;-76
2023/06/22 11:08:53;;;;;;;1999.90;999.90;;;31.70;99.90;;;;;;5027520;28;20033;-76
2023/06/22 11:11:19;;;;;;;1999.90;999.90;;;31.60;99.90;;;;;;5027964;28;20032;-77
2023/06/22 11:13:45;;;;;;;1999.90;999.90;;;30.10;99.90;;;;;;5022692;28;20563;-73
2023/06/22 11:16:12;;;;;;;1999.90;999.90;;;30.20;99.90;;;;;;5022586;28;20167;-74
2023/06/22 11:18:38;;;;;;;1999.90;999.90;;;30.50;99.90;;;;;;5032226;28;20105;-74
2023/06/22 11:21:03;;;;;;;1999.90;999.90;;;30.70;99.90;;;;;;5014136;28;20029;-74
2023/06/22 11:23:29;;;;;;;1999.90;999.90;;;31.30;99.90;;;;;;5028188;28;20033;-74
2023/06/22 11:25:55;;;;;;;1999.90;999.90;;;31.60;99.90;;;;;;5031188;28;20041;-74
2023/06/22 11:28:20;;;;;;;1999.90;999.90;;;31.30;99.90;;;;;;5030528;28;20040;-73
2023/06/22 11:30:46;;;;;;;1999.90;999.90;;;31.30;99.90;;;;;;5028856;28;20034;-73
2023/06/22 11:33:12;;;;;;;1999.90;999.90;;;31.70;99.90;;;;;;5027688;28;20029;-74
2023/06/22 11:35:37;;;;;;;1999.90;999.90;;;31.80;99.90;;;;;;5027744;28;20033;-74
2023/06/22 11:38:04;;;;;;;1999.90;999.90;;;31.80;99.90;;;;;;5025635;28;20018;-74
2023/06/22 11:40:30;;;;;;;1999.90;999.90;;;31.80;99.90;;;;;;5024815;28;20400;-76
2023/06/22 11:42:56;;;;;;;1999.90;999.90;;;31.70;99.90;;;;;;5022549;28;20025;-72
2023/06/22 11:45:21;;;;;;;1999.90;999.90;;;31.60;99.90;;;;;;5025421;28;20399;-73
2023/06/22 11:47:47;;;;;;;1999.90;999.90;;;30.90;99.90;;;;;;5027832;28;20065;-72
2023/06/22 11:50:13;;;;;;;1999.90;999.90;;;30.90;99.90;;;;;;5026370;28;20104;-72
2023/06/22 11:52:39;;;;;;;1999.90;999.90;;;30.60;99.90;;;;;;5024436;28;20033;-78
2023/06/22 11:55:06;;;;;;;1999.90;999.90;;;30.90;99.90;;;;;;5025640;28;20039;-77
2023/06/22 11:57:36;;;;;;;1999.90;999.90;;;30.70;99.90;;;;;;5025168;28;20030;-76